Time;durP1;ratioP1;P1;durP2;ratioP2;P2;SDS_P1;SDS_P2;PMS_P1;PMS_P2;Temp;Humidity;BMP_temperature;BMP_pressure;BME280_temperature;BME280_humidity;BME280_pressure;Samples;Min_cycle;Max_cycle;Signal;HPM_P1;HPM_P2
2022/05/18 00:00:27;;;;;;;7.97;4.83;;;18.70;99.90;;;;;;5077238;28;20540;-56
2022/05/18 00:02:55;;;;;;;8.27;4.30;;;18.70;99.90;;;;;;5077434;28;20479;-56
2022/05/18 00:05:22;;;;;;;5.93;4.20;;;18.80;99.90;;;;;;5076845;28;20945;-56
2022/05/18 00:07:51;;;;;;;6.03;5.20;;;18.80;99.90;;;;;;5077008;28;20448;-56
2022/05/18 00:10:19;;;;;;;4.80;4.10;;;18.70;99.90;;;;;;5076823;28;20450;-56
2022/05/18 00:12:48;;;;;;;7.30;5.40;;;18.80;99.90;;;;;;5076971;28;20774;-57
2022/05/18 00:15:17;;;;;;;4.83;4.33;;;18.70;99.90;;;;;;5076651;28;20459;-56
2022/05/18 00:17:44;;;;;;;5.60;5.10;;;18.70;99.90;;;;;;5076625;28;20459;-56
2022/05/18 00:20:13;;;;;;;6.80;4.63;;;18.60;99.90;;;;;;5076844;28;20472;-56
2022/05/18 00:22:47;;;;;;;5.33;4.83;;;18.60;99.90;;;;;;5076720;28;20479;-56
2022/05/18 00:25:17;;;;;;;9.13;4.63;;;18.70;99.90;;;;;;5076839;28;20428;-56
2022/05/18 00:27:44;;;;;;;5.53;4.43;;;18.40;99.90;;;;;;5076436;28;20482;-56
2022/05/18 00:30:13;;;;;;;4.93;4.43;;;18.40;99.90;;;;;;5076606;28;20468;-56
2022/05/18 00:32:41;;;;;;;4.80;4.30;;;18.40;99.90;;;;;;5076293;28;20997;-56
2022/05/18 00:35:09;;;;;;;4.50;3.93;;;18.30;99.90;;;;;;5076568;28;20852;-56
2022/05/18 00:37:37;;;;;;;4.90;4.40;;;18.30;99.90;;;;;;5076540;28;20455;-56
2022/05/18 00:40:05;;;;;;;4.67;4.27;;;18.20;99.90;;;;;;5076135;28;20557;-56
2022/05/18 00:42:34;;;;;;;5.17;4.73;;;18.20;99.90;;;;;;5076140;28;20571;-56
2022/05/18 00:45:01;;;;;;;7.77;3.83;;;18.20;99.90;;;;;;5076781;28;20452;-56
2022/05/18 00:47:28;;;;;;;5.80;4.60;;;18.20;99.90;;;;;;5076005;28;21042;-56
2022/05/18 00:49:59;;;;;;;3.80;3.40;;;18.20;99.90;;;;;;5075853;28;20454;-56
2022/05/18 00:52:33;;;;;;;5.20;4.00;;;18.20;99.90;;;;;;5076319;28;20433;-56
2022/05/18 00:55:02;;;;;;;4.50;4.00;;;18.10;99.90;;;;;;5076351;28;20785;-56
2022/05/18 00:57:35;;;;;;;6.43;5.80;;;18.10;99.90;;;;;;5076804;28;20444;-56
2022/05/18 01:00:08;;;;;;;3.90;3.50;;;18.10;99.90;;;;;;5075907;28;20460;-55
2022/05/18 01:02:41;;;;;;;4.77;3.93;;;18.10;99.90;;;;;;5076083;28;20469;-56
2022/05/18 01:05:11;;;;;;;7.13;4.23;;;18.00;99.90;;;;;;5076177;28;20763;-56
2022/05/18 01:07:43;;;;;;;5.30;4.77;;;17.80;99.90;;;;;;5076075;28;20516;-56
2022/05/18 01:10:11;;;;;;;6.63;4.27;;;17.80;99.90;;;;;;5075670;28;21003;-57
2022/05/18 01:12:39;;;;;;;6.10;4.70;;;17.80;99.90;;;;;;5075878;28;20468;-57
2022/05/18 01:15:09;;;;;;;6.43;4.50;;;17.70;99.90;;;;;;5076015;28;20459;-56
2022/05/18 01:17:38;;;;;;;4.83;4.27;;;17.80;99.90;;;;;;5075783;28;20448;-56
2022/05/18 01:20:09;;;;;;;5.83;5.23;;;17.80;99.90;;;;;;5075432;28;20472;-56
2022/05/18 01:22:43;;;;;;;4.40;4.00;;;17.80;99.90;;;;;;5076706;28;20471;-56
2022/05/18 01:25:24;;;;;;;5.70;4.50;;;17.60;99.90;;;;;;5076244;28;20437;-56
2022/05/18 01:27:54;;;;;;;6.40;5.80;;;17.60;99.90;;;;;;5075791;28;20428;-56
2022/05/18 01:30:22;;;;;;;4.97;4.57;;;17.50;99.90;;;;;;5075639;28;20448;-56
2022/05/18 01:32:51;;;;;;;5.10;4.10;;;17.40;99.90;;;;;;5075560;28;20448;-56
2022/05/18 01:35:26;;;;;;;5.70;4.00;;;17.30;99.90;;;;;;5075522;28;20815;-56
2022/05/18 01:37:57;;;;;;;5.57;5.00;;;17.30;99.90;;;;;;5075388;28;20519;-56
2022/05/18 01:40:33;;;;;;;12.10;5.73;;;17.40;99.90;;;;;;5075353;28;20468;-57
2022/05/18 01:43:10;;;;;;;5.60;4.43;;;17.40;99.90;;;;;;5075916;28;20456;-57
2022/05/18 01:45:37;;;;;;;6.63;4.93;;;17.50;99.90;;;;;;5076098;28;20424;-55
2022/05/18 01:48:12;;;;;;;6.90;5.23;;;17.50;99.90;;;;;;5074870;28;20931;-56
2022/05/18 01:50:41;;;;;;;5.10;4.70;;;17.50;99.90;;;;;;5075168;28;20539;-56
2022/05/18 01:53:08;;;;;;;6.30;4.40;;;17.40;99.90;;;;;;5075097;28;20445;-56
2022/05/18 01:55:36;;;;;;;5.30;4.30;;;17.40;99.90;;;;;;5075031;28;20451;-55
2022/05/18 01:58:05;;;;;;;7.60;4.10;;;17.30;99.90;;;;;;5074922;28;20448;-56
2022/05/18 02:00:33;;;;;;;5.80;4.87;;;17.20;99.90;;;;;;5074877;28;20955;-56
2022/05/18 02:03:00;;;;;;;6.20;5.60;;;17.10;99.90;;;;;;5073944;28;20571;-56
2022/05/18 02:05:28;;;;;;;5.27;4.67;;;17.20;99.90;;;;;;5074885;28;20444;-56
2022/05/18 02:07:57;;;;;;;7.13;5.03;;;17.20;99.90;;;;;;5074481;28;20445;-56
2022/05/18 02:10:24;;;;;;;5.70;5.20;;;17.30;99.90;;;;;;5074477;28;20455;-57
2022/05/18 02:12:52;;;;;;;5.20;4.70;;;17.30;99.90;;;;;;5074707;28;20498;-56
2022/05/18 02:15:22;;;;;;;6.93;4.77;;;17.30;99.90;;;;;;5074345;28;20960;-56
2022/05/18 02:17:50;;;;;;;6.57;4.50;;;17.40;99.90;;;;;;5074598;28;20428;-56
2022/05/18 02:20:18;;;;;;;5.10;4.60;;;17.30;99.90;;;;;;5074692;28;20430;-57
2022/05/18 02:22:45;;;;;;;6.30;4.43;;;17.30;99.90;;;;;;5074122;28;21028;-56
2022/05/18 02:25:12;;;;;;;8.07;6.53;;;17.20;99.90;;;;;;5074545;28;20791;-57
2022/05/18 02:27:39;;;;;;;6.00;4.83;;;17.00;99.90;;;;;;5074470;28;20472;-56
2022/05/18 02:30:08;;;;;;;5.60;5.00;;;16.90;99.90;;;;;;5073969;28;21009;-57
2022/05/18 02:32:37;;;;;;;6.90;4.67;;;16.90;99.90;;;;;;5074377;28;20494;-56
2022/05/18 02:35:05;;;;;;;5.63;5.13;;;17.00;99.90;;;;;;5074526;28;20432;-53
2022/05/18 02:37:33;;;;;;;8.40;4.90;;;17.10;99.90;;;;;;5074315;28;20788;-54
2022/05/18 02:40:00;;;;;;;5.20;4.70;;;17.10;99.90;;;;;;5073899;28;20475;-55
2022/05/18 02:42:27;;;;;;;4.80;4.30;;;17.10;99.90;;;;;;5073800;28;20524;-55
2022/05/18 02:44:54;;;;;;;5.50;5.00;;;17.10;99.90;;;;;;5073827;28;20433;-55
2022/05/18 02:47:23;;;;;;;5.60;5.10;;;17.10;99.90;;;;;;5074098;28;20461;-55
2022/05/18 02:49:52;;;;;;;5.37;4.40;;;17.00;99.90;;;;;;5074025;28;20475;-54
2022/05/18 02:52:19;;;;;;;6.37;4.67;;;17.00;99.90;;;;;;5074071;28;20444;-54
2022/05/18 02:57:32;;;;;;;8.80;4.50;;;17.00;99.90;;;;;;5074114;28;20407;-54
2022/05/18 02:59:59;;;;;;;6.80;4.83;;;17.00;99.90;;;;;;5073565;28;20851;-55
2022/05/18 03:02:26;;;;;;;5.67;4.50;;;16.90;99.90;;;;;;5073645;28;20472;-55
2022/05/18 03:04:55;;;;;;;4.33;3.97;;;16.90;99.90;;;;;;5073536;28;20810;-55
2022/05/18 03:07:23;;;;;;;8.90;5.43;;;16.70;99.90;;;;;;5073811;28;20539;-56
2022/05/18 03:09:50;;;;;;;6.63;5.93;;;16.60;99.90;;;;;;5073739;28;20472;-56
2022/05/18 03:12:17;;;;;;;5.30;4.70;;;16.60;99.90;;;;;;5073503;28;20536;-56
2022/05/18 03:14:44;;;;;;;4.80;4.17;;;16.70;99.90;;;;;;5072412;28;20555;-56
2022/05/18 03:17:13;;;;;;;6.13;4.50;;;16.80;99.90;;;;;;5073651;28;20883;-55
2022/05/18 03:19:40;;;;;;;5.30;4.80;;;16.80;99.90;;;;;;5073887;28;20494;-55
2022/05/18 03:24:58;;;;;;;5.00;4.60;;;16.80;99.90;;;;;;5034880;28;20429;-56
2022/05/18 03:27:26;;;;;;;5.23;4.73;;;16.80;99.90;;;;;;5073711;28;20424;-55
2022/05/18 03:29:53;;;;;;;5.27;4.77;;;16.80;99.90;;;;;;5073493;28;20464;-55
2022/05/18 03:32:22;;;;;;;5.83;5.17;;;16.80;99.90;;;;;;5074130;28;20447;-55
2022/05/18 03:34:51;;;;;;;5.83;5.33;;;16.90;99.90;;;;;;5073600;28;20451;-55
2022/05/18 03:37:19;;;;;;;5.77;5.23;;;16.70;99.90;;;;;;5073285;28;20547;-56
2022/05/18 03:39:51;;;;;;;5.40;4.67;;;16.80;99.90;;;;;;5073147;28;20459;-55
2022/05/18 03:42:18;;;;;;;5.60;5.07;;;16.80;99.90;;;;;;5073286;28;20485;-55
2022/05/18 03:44:45;;;;;;;5.23;4.50;;;16.60;99.90;;;;;;5073913;28;20467;-55
2022/05/18 03:47:12;;;;;;;5.70;5.20;;;16.50;99.90;;;;;;5074283;28;20555;-55
2022/05/18 03:49:40;;;;;;;6.37;5.07;;;16.50;99.90;;;;;;5073124;28;20456;-55
2022/05/18 03:52:07;;;;;;;6.23;5.23;;;16.40;99.90;;;;;;5073697;28;20864;-55
2022/05/18 03:54:36;;;;;;;5.10;4.60;;;16.40;99.90;;;;;;5073147;28;20683;-56
2022/05/18 03:57:06;;;;;;;5.70;4.97;;;16.30;99.90;;;;;;5073041;28;20480;-55
2022/05/18 03:59:33;;;;;;;6.30;5.70;;;16.50;99.90;;;;;;5073356;28;20514;-55
2022/05/18 04:02:00;;;;;;;9.73;5.00;;;16.50;99.90;;;;;;5073431;28;20444;-55
2022/05/18 04:04:28;;;;;;;10.27;5.97;;;16.50;99.90;;;;;;5072928;28;20551;-55
2022/05/18 04:06:55;;;;;;;7.70;5.30;;;16.30;99.90;;;;;;5073231;28;20459;-55
2022/05/18 04:09:22;;;;;;;6.30;5.00;;;16.40;99.90;;;;;;5073188;28;20555;-56
2022/05/18 04:11:51;;;;;;;4.70;4.27;;;16.50;99.90;;;;;;5073187;28;20448;-56
2022/05/18 04:14:18;;;;;;;6.97;5.43;;;16.50;99.90;;;;;;5072937;28;20452;-55
2022/05/18 04:16:49;;;;;;;6.00;5.47;;;16.60;99.90;;;;;;5072877;28;20459;-55
2022/05/18 04:19:16;;;;;;;11.03;4.63;;;16.70;99.90;;;;;;5072828;28;20464;-55
2022/05/18 04:21:44;;;;;;;6.47;5.10;;;16.70;99.90;;;;;;5073350;28;20783;-55
2022/05/18 04:24:11;;;;;;;6.20;4.77;;;16.70;99.90;;;;;;5072639;28;20476;-55
2022/05/18 04:26:39;;;;;;;7.93;5.60;;;16.70;99.90;;;;;;5076527;28;20436;-56
2022/05/18 04:29:07;;;;;;;6.83;4.47;;;16.60;99.90;;;;;;5076619;28;20526;-56
2022/05/18 04:31:35;;;;;;;6.53;5.53;;;16.60;99.90;;;;;;5076374;28;20931;-56
2022/05/18 04:34:02;;;;;;;5.90;5.30;;;16.60;99.90;;;;;;5077342;28;20930;-56
2022/05/18 04:36:30;;;;;;;6.53;5.60;;;16.70;99.90;;;;;;5076804;28;20454;-56
2022/05/18 04:38:57;;;;;;;5.70;5.13;;;16.70;99.90;;;;;;5077289;28;20500;-55
2022/05/18 04:41:24;;;;;;;7.70;5.10;;;16.80;99.90;;;;;;5076126;28;20842;-56
2022/05/18 04:43:51;;;;;;;5.50;4.60;;;16.80;99.90;;;;;;5076967;28;20591;-56
2022/05/18 04:46:20;;;;;;;6.10;4.73;;;16.80;99.90;;;;;;5076659;28;20502;-56
2022/05/18 04:48:47;;;;;;;9.43;5.93;;;16.90;99.90;;;;;;5076033;28;20967;-56
2022/05/18 04:51:14;;;;;;;5.57;5.10;;;16.90;99.90;;;;;;5076431;28;20483;-56
2022/05/18 04:53:41;;;;;;;6.13;4.50;;;16.90;99.90;;;;;;5075940;28;20987;-55
2022/05/18 04:56:09;;;;;;;8.23;5.33;;;16.90;99.90;;;;;;5076385;28;20440;-55
2022/05/18 04:58:36;;;;;;;6.53;5.90;;;16.90;99.90;;;;;;5076125;28;21161;-55
2022/05/18 05:01:09;;;;;;;5.90;5.30;;;16.90;99.90;;;;;;5076114;28;20474;-55
2022/05/18 05:03:38;;;;;;;5.83;5.33;;;17.00;99.90;;;;;;5075707;28;21088;-55
2022/05/18 05:06:06;;;;;;;6.73;5.33;;;17.00;99.90;;;;;;5075986;28;20453;-55
2022/05/18 05:08:35;;;;;;;8.50;6.03;;;17.10;99.90;;;;;;5075583;28;21025;-55
2022/05/18 05:11:03;;;;;;;6.00;5.47;;;17.10;99.90;;;;;;5075723;28;20823;-56
2022/05/18 05:13:30;;;;;;;6.53;5.90;;;17.20;99.90;;;;;;5075603;28;20540;-55
2022/05/18 05:16:02;;;;;;;8.43;6.17;;;17.20;99.90;;;;;;5075523;28;20455;-55
2022/05/18 05:18:29;;;;;;;7.73;6.70;;;17.30;99.90;;;;;;5075714;28;20471;-55
2022/05/18 05:20:58;;;;;;;7.50;5.60;;;17.40;99.90;;;;;;5076495;28;20453;-56
2022/05/18 05:23:26;;;;;;;6.63;6.00;;;17.40;99.90;;;;;;5075274;28;21012;-56
2022/05/18 05:25:54;;;;;;;8.13;5.90;;;17.50;99.90;;;;;;5075631;28;20783;-55
2022/05/18 05:28:21;;;;;;;11.10;7.23;;;17.60;99.90;;;;;;5075447;28;20469;-55
2022/05/18 05:30:49;;;;;;;12.40;7.57;;;17.70;99.90;;;;;;5075179;28;20946;-55
2022/05/18 05:33:16;;;;;;;11.30;5.93;;;17.80;99.90;;;;;;5075798;28;20990;-55
2022/05/18 05:35:44;;;;;;;5.70;5.13;;;17.90;99.90;;;;;;5075094;28;20882;-55
2022/05/18 05:38:13;;;;;;;8.63;5.20;;;17.90;99.90;;;;;;5074135;28;20472;-55
2022/05/18 05:40:40;;;;;;;6.43;5.93;;;18.00;99.90;;;;;;5074688;28;20487;-55
2022/05/18 05:43:09;;;;;;;7.33;6.20;;;18.00;99.90;;;;;;5074635;28;20429;-56
2022/05/18 05:45:36;;;;;;;9.37;6.20;;;18.00;99.90;;;;;;5075163;28;20524;-56
2022/05/18 05:48:05;;;;;;;7.60;6.43;;;18.10;99.90;;;;;;5074999;28;20440;-56
2022/05/18 05:50:32;;;;;;;11.27;7.20;;;18.10;99.90;;;;;;5074767;28;20459;-55
2022/05/18 05:52:59;;;;;;;9.60;6.20;;;18.20;99.90;;;;;;5075336;28;20536;-55
2022/05/18 05:55:28;;;;;;;9.20;6.70;;;18.30;99.90;;;;;;5074703;28;20534;-55
2022/05/18 05:57:56;;;;;;;13.53;6.90;;;18.30;99.90;;;;;;5074553;28;20445;-55
2022/05/18 06:00:24;;;;;;;14.43;7.40;;;18.40;99.90;;;;;;5074994;28;20448;-56
2022/05/18 06:02:53;;;;;;;9.90;7.80;;;18.50;99.90;;;;;;5074465;28;20448;-55
2022/05/18 06:05:20;;;;;;;7.60;6.60;;;18.60;99.90;;;;;;5074597;28;20474;-55
2022/05/18 06:07:48;;;;;;;7.47;6.77;;;18.70;99.90;;;;;;5074542;28;20536;-55
2022/05/18 06:10:15;;;;;;;9.30;5.33;;;18.80;99.90;;;;;;5074456;28;20455;-55
2022/05/18 06:12:44;;;;;;;12.17;6.60;;;18.90;99.90;;;;;;5074478;28;20443;-55
2022/05/18 06:15:11;;;;;;;7.10;5.67;;;19.00;99.90;;;;;;5074038;28;20455;-56
2022/05/18 06:17:39;;;;;;;8.07;5.77;;;19.10;99.90;;;;;;5074401;28;20441;-55
2022/05/18 06:20:07;;;;;;;7.00;5.60;;;19.20;99.90;;;;;;5074084;28;20990;-55
2022/05/18 06:22:34;;;;;;;6.63;5.00;;;19.30;99.90;;;;;;5074368;28;20445;-55
2022/05/18 06:25:02;;;;;;;6.90;5.10;;;19.40;99.90;;;;;;5074294;28;20514;-55
2022/05/18 06:27:29;;;;;;;8.00;5.20;;;19.50;99.90;;;;;;5073953;28;20527;-55
2022/05/18 06:29:57;;;;;;;7.73;5.60;;;19.60;99.90;;;;;;5074780;28;20464;-55
2022/05/18 06:32:24;;;;;;;9.43;5.03;;;19.60;99.90;;;;;;5073920;28;20543;-56
2022/05/18 06:34:52;;;;;;;11.03;5.43;;;19.70;99.90;;;;;;5073849;28;20527;-56
2022/05/18 06:37:19;;;;;;;4.73;4.07;;;19.70;99.90;;;;;;5074772;28;20452;-55
2022/05/18 06:39:46;;;;;;;10.20;5.40;;;19.70;99.90;;;;;;5074011;28;20572;-56
2022/05/18 06:42:13;;;;;;;5.63;5.13;;;19.90;99.90;;;;;;5073506;28;20571;-56
2022/05/18 06:44:40;;;;;;;10.20;5.30;;;20.00;99.90;;;;;;5074084;28;20495;-56
2022/05/18 06:47:09;;;;;;;6.23;5.47;;;20.00;99.90;;;;;;5073632;28;20440;-56
2022/05/18 06:49:36;;;;;;;8.03;4.63;;;20.10;99.90;;;;;;5073164;28;20836;-56
2022/05/18 06:52:04;;;;;;;7.93;5.00;;;20.20;99.90;;;;;;5073785;28;20531;-56
2022/05/18 06:54:31;;;;;;;9.70;4.90;;;20.30;99.90;;;;;;5073304;28;20445;-55
2022/05/18 06:57:01;;;;;;;7.80;5.40;;;20.40;99.90;;;;;;5073326;28;20476;-56
2022/05/18 06:59:29;;;;;;;6.83;6.07;;;20.50;99.90;;;;;;5072566;28;20854;-56
2022/05/18 07:01:56;;;;;;;6.53;4.90;;;20.60;99.90;;;;;;5072724;28;20444;-55
2022/05/18 07:04:25;;;;;;;7.37;4.00;;;20.70;99.90;;;;;;5072897;28;20567;-55
2022/05/18 07:06:52;;;;;;;7.47;5.33;;;20.70;99.90;;;;;;5073017;28;20938;-55
2022/05/18 07:09:21;;;;;;;6.73;4.97;;;20.80;99.90;;;;;;5073039;28;20507;-57
2022/05/18 07:11:50;;;;;;;6.60;4.10;;;20.70;99.90;;;;;;5073406;28;20451;-56
2022/05/18 07:14:19;;;;;;;7.93;4.50;;;20.80;99.90;;;;;;5073536;28;20456;-55
2022/05/18 07:16:46;;;;;;;5.50;4.43;;;20.90;99.90;;;;;;5073330;28;20449;-55
2022/05/18 07:19:14;;;;;;;6.00;5.10;;;20.90;99.90;;;;;;5073079;28;20564;-55
2022/05/18 07:21:44;;;;;;;8.37;4.60;;;20.90;99.90;;;;;;5073262;28;20421;-57
2022/05/18 07:24:11;;;;;;;9.37;5.13;;;21.20;99.90;;;;;;5073318;28;20892;-56
2022/05/18 07:26:39;;;;;;;7.40;5.33;;;21.70;99.90;;;;;;5073328;28;20453;-55
2022/05/18 07:29:07;;;;;;;13.77;4.90;;;23.30;99.90;;;;;;5072897;28;21012;-56
2022/05/18 07:32:08;;;;;;;7.53;4.60;;;23.40;99.90;;;;;;5072801;28;20454;-56
2022/05/18 07:34:23;;;;;;;10.63;4.70;;;23.70;99.90;;;;;;5072694;28;20854;-56
2022/05/18 07:36:53;;;;;;;5.50;4.80;;;24.20;99.90;;;;;;5073151;28;20539;-56
2022/05/18 07:39:28;;;;;;;5.00;4.20;;;24.80;99.90;;;;;;5072560;28;20472;-56
2022/05/18 07:41:55;;;;;;;4.97;4.10;;;25.00;99.90;;;;;;5072535;28;20529;-56
2022/05/18 07:44:22;;;;;;;6.43;4.37;;;25.50;99.30;;;;;;5073070;28;20582;-57
2022/05/18 07:46:50;;;;;;;6.63;5.00;;;25.80;98.50;;;;;;5073009;28;20455;-56
2022/05/18 07:49:18;;;;;;;5.60;4.80;;;26.40;98.20;;;;;;5073111;28;20476;-56
2022/05/18 07:51:46;;;;;;;6.63;4.07;;;26.30;97.50;;;;;;5073038;28;20859;-56
2022/05/18 07:54:15;;;;;;;8.40;4.13;;;26.70;97.00;;;;;;5072740;28;20543;-57
2022/05/18 07:56:42;;;;;;;4.47;4.07;;;26.90;95.60;;;;;;5072950;28;20535;-56
2022/05/18 07:59:11;;;;;;;6.93;3.93;;;27.30;95.20;;;;;;5072678;28;20464;-57
2022/05/18 08:01:39;;;;;;;5.67;4.27;;;27.70;95.20;;;;;;5076103;28;20868;-56
2022/05/18 08:04:06;;;;;;;6.50;4.13;;;27.50;93.70;;;;;;5077003;28;20491;-57
2022/05/18 08:06:34;;;;;;;5.37;3.80;;;28.20;94.60;;;;;;5076703;28;20444;-57
2022/05/18 08:09:01;;;;;;;4.37;4.07;;;28.20;92.90;;;;;;5076512;28;20474;-57
2022/05/18 08:17:14;;;;;;;3.83;3.07;;;28.70;86.40;;;;;;5034532;28;20509;-57
2022/05/18 08:19:41;;;;;;;4.00;3.20;;;29.30;87.60;;;;;;5034474;28;20511;-57
2022/05/18 08:22:08;;;;;;;5.27;3.87;;;29.50;88.20;;;;;;5052754;28;20527;-57
2022/05/18 08:24:36;;;;;;;6.17;3.80;;;30.00;83.80;;;;;;5076488;28;20484;-56
2022/05/18 08:27:05;;;;;;;6.00;4.60;;;29.50;82.90;;;;;;5076573;28;20448;-56
2022/05/18 08:29:35;;;;;;;3.50;3.20;;;29.10;79.30;;;;;;5076497;28;20551;-56
2022/05/18 08:32:02;;;;;;;5.43;4.20;;;29.20;78.80;;;;;;5075994;28;20447;-56
2022/05/18 08:34:29;;;;;;;5.57;4.00;;;28.90;78.50;;;;;;5075957;28;20448;-57
2022/05/18 08:36:57;;;;;;;3.70;3.40;;;29.20;78.10;;;;;;5076909;28;20448;-57
2022/05/18 08:39:24;;;;;;;6.33;3.60;;;29.00;78.40;;;;;;5076294;28;20523;-59
2022/05/18 08:41:52;;;;;;;4.10;3.70;;;29.70;78.60;;;;;;5075816;28;20478;-57
2022/05/18 08:44:27;;;;;;;11.43;3.83;;;30.20;78.80;;;;;;5076087;28;20491;-58
2022/05/18 08:47:13;;;;;;;3.80;3.50;;;30.20;89.70;;;;;;5075801;28;20442;-58
2022/05/18 08:49:51;;;;;;;4.93;3.70;;;30.10;81.70;;;;;;5076128;28;20468;-57
2022/05/18 08:52:34;;;;;;;3.73;3.30;;;30.20;74.00;;;;;;5076201;28;20428;-58
2022/05/18 08:55:26;;;;;;;5.03;3.90;;;29.80;75.30;;;;;;5075729;28;20435;-57
2022/05/18 08:57:57;;;;;;;3.77;3.47;;;29.80;80.00;;;;;;5075900;28;20782;-57
2022/05/18 09:00:30;;;;;;;6.60;3.37;;;30.40;76.60;;;;;;5075511;28;20523;-57
2022/05/18 09:03:03;;;;;;;5.97;3.50;;;31.00;73.10;;;;;;5075633;28;20413;-56
2022/05/18 09:05:37;;;;;;;3.93;3.30;;;31.10;72.90;;;;;;5075358;28;20464;-57
2022/05/18 09:08:10;;;;;;;5.17;3.87;;;30.80;70.70;;;;;;5075441;28;20429;-57
2022/05/18 09:10:44;;;;;;;4.73;3.73;;;30.80;75.20;;;;;;5075726;28;20432;-58
2022/05/18 09:13:11;;;;;;;3.53;3.23;;;;;;;;;;5075161;28;20506;-58
2022/05/18 09:15:52;;;;;;;3.37;3.07;;;31.50;68.20;;;;;;5075534;28;20486;-56
2022/05/18 09:18:30;;;;;;;3.70;3.20;;;31.10;66.00;;;;;;5075468;28;20459;-56
2022/05/18 09:21:05;;;;;;;3.83;3.30;;;31.10;63.50;;;;;;5075374;28;20456;-56
2022/05/18 09:23:48;;;;;;;7.63;3.80;;;30.70;64.10;;;;;;5074981;28;20761;-56
2022/05/18 09:26:26;;;;;;;3.60;3.30;;;30.50;64.30;;;;;;5074874;28;20526;-56
2022/05/18 09:29:04;;;;;;;3.83;3.13;;;30.90;64.90;;;;;;5074916;28;20475;-56
2022/05/18 09:31:46;;;;;;;4.63;3.30;;;31.00;64.90;;;;;;5074877;28;20458;-56
2022/05/18 09:34:31;;;;;;;3.40;3.10;;;31.60;64.50;;;;;;5074903;28;20451;-56
2022/05/18 09:37:18;;;;;;;3.80;2.60;;;32.00;60.30;;;;;;5075119;28;20428;-56
2022/05/18 09:39:48;;;;;;;3.90;3.50;;;31.80;59.00;;;;;;5075072;28;20860;-56
2022/05/18 09:42:20;;;;;;;4.13;3.13;;;31.40;63.40;;;;;;5074758;28;20515;-56
2022/05/18 09:44:50;;;;;;;4.23;2.90;;;32.00;60.80;;;;;;5074887;28;20522;-56
2022/05/18 09:47:25;;;;;;;3.37;3.03;;;32.40;62.40;;;;;;5074495;28;20806;-56
2022/05/18 09:49:54;;;;;;;4.20;3.60;;;32.10;57.00;;;;;;5074709;28;20506;-56
2022/05/18 09:52:25;;;;;;;4.10;2.80;;;32.30;58.30;;;;;;5074378;28;20966;-56
2022/05/18 09:54:54;;;;;;;3.40;2.80;;;32.00;58.90;;;;;;5075091;28;20443;-56
2022/05/18 09:57:25;;;;;;;2.73;2.30;;;32.40;56.90;;;;;;5074420;28;20431;-56
2022/05/18 09:59:56;;;;;;;3.30;2.33;;;32.50;55.70;;;;;;5074725;28;20507;-56
2022/05/18 10:08:14;;;;;;;4.33;2.90;;;31.90;55.20;;;;;;5074246;28;20992;-56
2022/05/18 10:10:42;;;;;;;2.90;2.70;;;31.90;56.30;;;;;;5074464;28;20530;-57
2022/05/18 10:13:12;;;;;;;3.30;3.00;;;32.20;55.40;;;;;;5073999;28;20534;-57
2022/05/18 10:15:42;;;;;;;4.90;3.10;;;32.30;56.10;;;;;;5073999;28;20983;-57
2022/05/18 10:18:33;;;;;;;3.83;3.00;;;32.00;55.10;;;;;;5073812;28;20789;-57
2022/05/18 10:21:14;;;;;;;5.27;3.23;;;32.00;63.90;;;;;;5074191;28;20420;-57
2022/05/18 10:23:47;;;;;;;3.20;2.90;;;32.90;56.30;;;;;;5073472;28;20519;-56
2022/05/18 10:26:24;;;;;;;3.33;3.03;;;33.20;55.20;;;;;;5074011;28;20468;-56
2022/05/18 10:28:57;;;;;;;3.40;3.10;;;33.40;55.30;;;;;;5075064;28;20487;-56
2022/05/18 10:31:31;;;;;;;6.83;2.60;;;33.50;54.20;;;;;;5074859;28;20460;-59
2022/05/18 10:34:18;;;;;;;3.60;2.57;;;32.70;52.40;;;;;;5074385;28;20443;-57
2022/05/18 10:36:48;;;;;;;3.60;2.57;;;32.80;52.40;;;;;;5073640;28;20439;-57
2022/05/18 10:39:35;;;;;;;3.37;2.83;;;32.50;53.10;;;;;;5073949;28;20595;-57
2022/05/18 10:42:09;;;;;;;2.47;2.27;;;;;;;;;;5072147;28;20479;-57
2022/05/18 10:44:37;;;;;;;2.70;2.50;;;31.30;54.10;;;;;;5073815;28;20452;-58
2022/05/18 10:47:26;;;;;;;2.60;2.40;;;32.30;53.40;;;;;;5073685;28;21009;-58
2022/05/18 10:50:11;;;;;;;2.67;2.47;;;32.50;53.30;;;;;;5073810;28;20460;-58
2022/05/18 10:52:40;;;;;;;3.30;3.00;;;32.80;53.60;;;;;;5073684;28;20470;-58
2022/05/18 10:55:16;;;;;;;4.33;2.53;;;32.10;53.60;;;;;;5074874;28;20445;-58
2022/05/18 10:57:55;;;;;;;4.17;2.67;;;32.20;54.40;;;;;;5074503;28;20432;-57
2022/05/18 11:00:25;;;;;;;2.67;2.47;;;;;;;;;;5073747;28;20530;-58
2022/05/18 11:03:00;;;;;;;3.20;2.50;;;31.20;50.30;;;;;;5074281;28;20933;-58
2022/05/18 11:05:38;;;;;;;3.20;2.00;;;32.00;64.20;;;;;;5074043;28;20497;-57
2022/05/18 11:08:11;;;;;;;4.23;2.97;;;32.20;49.40;;;;;;5073255;28;20432;-57
2022/05/18 11:10:48;;;;;;;2.70;2.50;;;31.70;51.30;;;;;;5073230;28;20958;-57
2022/05/18 11:13:22;;;;;;;3.00;2.43;;;31.60;50.90;;;;;;5073364;28;20454;-58
2022/05/18 11:15:59;;;;;;;3.87;3.10;;;31.40;51.90;;;;;;5074011;28;20461;-57
2022/05/18 11:18:45;;;;;;;3.30;3.00;;;32.30;52.70;;;;;;5072965;28;20463;-57
2022/05/18 11:21:20;;;;;;;3.00;2.60;;;32.70;52.60;;;;;;5073323;28;20501;-57
2022/05/18 11:23:55;;;;;;;4.20;3.80;;;33.50;52.00;;;;;;5072820;28;20428;-58
2022/05/18 11:26:34;;;;;;;3.00;2.70;;;33.40;53.10;;;;;;5073050;28;21036;-57
2022/05/18 11:29:13;;;;;;;3.40;3.03;;;33.60;52.50;;;;;;5073024;28;20467;-57
2022/05/18 11:31:55;;;;;;;3.07;2.40;;;33.20;50.80;;;;;;5073186;28;20468;-57
2022/05/18 11:34:29;;;;;;;3.10;2.80;;;33.40;51.50;;;;;;5072958;28;20523;-57
2022/05/18 11:37:14;;;;;;;3.13;2.83;;;33.30;51.40;;;;;;5076985;28;20435;-58
2022/05/18 11:39:51;;;;;;;4.43;2.23;;;33.70;52.50;;;;;;5077106;28;20513;-58
2022/05/18 11:42:31;;;;;;;3.00;2.70;;;33.80;51.20;;;;;;5077135;28;20558;-57
2022/05/18 11:45:15;;;;;;;2.80;2.50;;;33.90;51.40;;;;;;5077672;28;20555;-58
2022/05/18 11:47:57;;;;;;;4.77;2.60;;;33.50;50.30;;;;;;5077621;28;20444;-58
2022/05/18 11:50:33;;;;;;;3.50;3.13;;;32.90;51.40;;;;;;5076579;28;20875;-58
2022/05/18 11:53:19;;;;;;;2.73;2.53;;;32.80;52.40;;;;;;5077166;28;20446;-58
2022/05/18 11:55:56;;;;;;;4.07;3.07;;;32.70;52.10;;;;;;5076847;28;20424;-58
2022/05/18 11:58:47;;;;;;;3.90;3.40;;;32.70;52.70;;;;;;5076577;28;20470;-58
2022/05/18 12:01:30;;;;;;;2.77;2.57;;;32.70;52.10;;;;;;5077257;28;20478;-57
2022/05/18 12:04:30;;;;;;;5.40;3.23;;;31.90;61.40;;;;;;5076482;28;20435;-58
2022/05/18 12:07:22;;;;;;;3.70;3.00;;;31.90;55.60;;;;;;5076611;28;20464;-57
2022/05/18 12:10:03;;;;;;;5.00;3.20;;;33.00;55.20;;;;;;5076571;28;20503;-57
2022/05/18 12:12:37;;;;;;;3.03;2.83;;;33.30;51.20;;;;;;5076477;28;20518;-57
2022/05/18 12:15:11;;;;;;;4.17;3.10;;;33.10;50.60;;;;;;5076322;28;20462;-57
2022/05/18 12:17:45;;;;;;;4.60;2.87;;;32.50;50.90;;;;;;5076672;28;20433;-57
2022/05/18 12:20:18;;;;;;;3.40;2.70;;;32.10;51.20;;;;;;5076456;28;20471;-58
2022/05/18 12:22:49;;;;;;;4.27;2.90;;;31.90;51.30;;;;;;5076383;28;20781;-57
2022/05/18 12:25:22;;;;;;;3.93;2.80;;;31.80;52.20;;;;;;5076377;28;20914;-57
2022/05/18 12:27:51;;;;;;;3.77;2.80;;;31.80;52.00;;;;;;5076175;28;20428;-57
2022/05/18 12:30:21;;;;;;;3.20;3.00;;;32.10;52.20;;;;;;5076108;28;20570;-57
2022/05/18 12:32:51;;;;;;;3.80;3.17;;;32.40;52.60;;;;;;5076278;28;20451;-57
2022/05/18 12:35:22;;;;;;;6.13;2.73;;;32.30;52.00;;;;;;5076023;28;20535;-57
2022/05/18 12:37:51;;;;;;;3.53;2.67;;;;;;;;;;5076112;28;20424;-57
2022/05/18 12:40:31;;;;;;;8.77;4.13;;;32.10;51.60;;;;;;5076227;28;20450;-56
2022/05/18 12:43:04;;;;;;;3.40;3.10;;;31.60;51.70;;;;;;5076538;28;20451;-57
2022/05/18 12:45:38;;;;;;;3.20;2.63;;;31.80;52.30;;;;;;5076205;28;20475;-57
2022/05/18 12:48:27;;;;;;;3.23;3.00;;;31.90;52.00;;;;;;5075830;28;20429;-57
2022/05/18 12:51:05;;;;;;;6.03;3.10;;;32.40;51.40;;;;;;5076118;28;20525;-56
2022/05/18 12:54:02;;;;;;;6.97;3.50;;;31.80;50.50;;;;;;5076040;28;20432;-56
2022/05/18 12:56:53;;;;;;;3.70;2.77;;;31.80;51.20;;;;;;5075714;28;20444;-57
2022/05/18 12:59:23;;;;;;;3.83;3.53;;;31.80;50.30;;;;;;5076470;28;20460;-56
2022/05/18 13:01:54;;;;;;;3.63;3.10;;;31.70;52.00;;;;;;5075679;28;20802;-56
2022/05/18 13:04:42;;;;;;;3.47;3.17;;;31.50;52.00;;;;;;5076011;28;20421;-56
2022/05/18 13:07:27;;;;;;;6.13;2.83;;;31.60;52.30;;;;;;5075867;28;20468;-57
2022/05/18 13:10:12;;;;;;;3.30;3.00;;;32.00;52.50;;;;;;5075800;28;20879;-57
2022/05/18 13:12:48;;;;;;;3.23;2.70;;;31.60;52.40;;;;;;5075847;28;20425;-57
2022/05/18 13:15:55;;;;;;;3.23;3.00;;;31.80;52.00;;;;;;5075825;28;20413;-58
2022/05/18 13:18:29;;;;;;;3.00;2.80;;;;;;;;;;5075414;28;20825;-57
2022/05/18 13:21:06;;;;;;;5.10;3.00;;;30.60;51.70;;;;;;5075512;28;20434;-56
2022/05/18 13:23:43;;;;;;;3.97;3.27;;;30.50;52.40;;;;;;5075158;28;20428;-57
2022/05/18 13:26:29;;;;;;;3.43;3.13;;;30.70;53.40;;;;;;5075176;28;20560;-57